Weather History for Marfa, TX

Change the Weather History Date:

Saturday, November 6, 2010

  Actual Average Record
Temperature  
Mean Temperature 50 °F -  
Max Temperature 71 °F 65 °F 80 °F (1996)
Min Temperature 28 °F 37 °F 28 °F (2010)
Degree Days  
Heating Degree Days 16    
Moisture  
Dew Point 22 °F    
Average Humidity 43    
Maximum Humidity 74    
Minimum Humidity 13    
Precipitation  
Precipitation 0.00 in - - ()
Sea Level Pressure  
Sea Level Pressure 30.31 in    
Wind  
Wind Speed 7 mph (SSW)    
Max Wind Speed 14 mph    
Max Gust Speed 18 mph    
Visibility 10 miles    
Events      
Averages and records for this station are not official NWS values.
T = Trace of Precipitation, MM = Missing Value Source: NWS Daily Summary

Daily Weather History Graph

Daily Weather History Graph

Search for Another Location

Airport:

Trip Planner

Search our weather history database for the weather conditions in past years. The results will help you decide how hot, cold, wet, or windy it might be!

Date:

Astronomy

Nov. 06, 2010 Rise Set
Actual Time 8:14 AM CDT 7:04 PM CDT
Civil Twilight 7:49 AM CDT 7:29 PM CDT
Nautical Twilight 7:20 AM CDT 7:58 PM CDT
Astronomical Twilight 6:52 AM CDT 8:26 PM CDT
Moon 8:46 AM CDT (11/6) 7:23 PM CDT (11/6)
Length of Visible Light 11h 40m
Length of Day
10h 50m
New Moon, 0% of the Moon is Illuminated
Nov 6
New Moon
Nov 13
First Quarter
Nov 21
Full
Nov 28
Last Quarter
Dec 5
New

Hourly Weather History & Observations

Time (CDT) Temp. Windchill Dew Point Humidity Pressure Visibility Wind Dir Wind Speed Gust Speed Precip Events Conditions
12:15 AM 37.4 °F 32.1 °F 21.2 °F 52% 30.30 in 10.0 mi NW 6.9 mph - N/A   Clear
12:35 AM 35.6 °F 30.7 °F 21.2 °F 56% 30.30 in 10.0 mi NW 5.8 mph - N/A   Clear
12:55 AM 35.6 °F 29.9 °F 21.2 °F 56% 30.30 in 10.0 mi NNW 6.9 mph - N/A   Clear
1:15 AM 32.0 °F 25.6 °F 19.4 °F 60% 30.30 in 10.0 mi NNW 6.9 mph - N/A   Clear
1:35 AM 33.8 °F 27.0 °F 23.0 °F 65% 30.31 in 10.0 mi NW 8.1 mph - N/A   Clear
1:55 AM 35.6 °F 29.2 °F 21.2 °F 56% 30.31 in 10.0 mi NW 8.1 mph - N/A   Clear
2:15 AM 33.8 °F 26.4 °F 21.2 °F 60% 30.30 in 10.0 mi NNW 9.2 mph - N/A   Clear
2:35 AM 35.6 °F 29.2 °F 21.2 °F 56% 30.30 in 10.0 mi NNW 8.1 mph - N/A   Clear
2:55 AM 30.2 °F 23.4 °F 21.2 °F 69% 30.30 in 10.0 mi North 6.9 mph - N/A   Clear
3:15 AM 30.2 °F 23.4 °F 21.2 °F 69% 30.30 in 10.0 mi NNW 6.9 mph - N/A   Clear
3:35 AM 30.2 °F 22.6 °F 21.2 °F 69% 30.29 in 10.0 mi NNW 8.1 mph - N/A   Clear
3:55 AM 33.8 °F 28.6 °F 24.8 °F 70% 30.29 in 10.0 mi North 5.8 mph - N/A   Clear
4:15 AM 30.2 °F 24.3 °F 19.4 °F 64% 30.29 in 10.0 mi NNW 5.8 mph - N/A   Clear
4:35 AM 33.8 °F 28.6 °F 23.0 °F 65% 30.29 in 10.0 mi North 5.8 mph - N/A   Clear
4:55 AM 30.2 °F 25.4 °F 21.2 °F 69% 30.30 in 10.0 mi North 4.6 mph - N/A   Clear
5:15 AM 28.4 °F 24.6 °F 21.2 °F 74% 30.30 in 10.0 mi North 3.5 mph - N/A   Clear
5:35 AM 30.2 °F - 21.2 °F 69% 30.31 in 10.0 mi Calm Calm - N/A   Clear
5:55 AM 28.4 °F 22.2 °F 21.2 °F 74% 30.30 in 10.0 mi North 5.8 mph - N/A   Clear
6:15 AM 28.4 °F 22.2 °F 19.4 °F 69% 30.30 in 10.0 mi North 5.8 mph - N/A   Clear
6:35 AM 28.4 °F 22.2 °F 21.2 °F 74% 30.31 in 10.0 mi North 5.8 mph - N/A   Clear
6:55 AM 30.2 °F 25.4 °F 21.2 °F 69% 30.31 in 10.0 mi North 4.6 mph - N/A   Clear
7:15 AM 30.2 °F 23.4 °F 21.2 °F 69% 30.32 in 10.0 mi North 6.9 mph - N/A   Clear
7:35 AM 30.2 °F 23.4 °F 21.2 °F 69% 30.31 in 10.0 mi North 6.9 mph - N/A   Clear
7:55 AM 30.2 °F 22.6 °F 21.2 °F 69% 30.32 in 10.0 mi North 8.1 mph - N/A   Clear
8:15 AM 33.8 °F 27.7 °F 23.0 °F 65% 30.32 in 10.0 mi NNE 6.9 mph - N/A   Clear
8:35 AM 32.0 °F 24.8 °F 23.0 °F 69% 30.33 in 10.0 mi NNE 8.1 mph - N/A   Clear
8:55 AM 35.6 °F - 24.8 °F 65% 30.33 in 10.0 mi Calm Calm - N/A   Clear
9:15 AM 42.8 °F - 26.6 °F 53% 30.34 in 10.0 mi Calm Calm - N/A   Clear
9:35 AM 48.2 °F - 26.6 °F 43% 30.35 in 10.0 mi North 3.5 mph - N/A   Clear
9:55 AM 51.8 °F - 26.6 °F 38% 30.35 in 10.0 mi Calm Calm - N/A   Clear
10:15 AM 53.6 °F - 26.6 °F 35% 30.35 in 10.0 mi Calm Calm - N/A   Clear
10:35 AM 55.4 °F - 26.6 °F 33% 30.35 in 10.0 mi SE 4.6 mph - N/A   Clear
10:55 AM 57.2 °F - 26.6 °F 31% 30.35 in 10.0 mi South 3.5 mph - N/A   Clear
11:15 AM 59.0 °F - 26.6 °F 29% 30.36 in 10.0 mi South 4.6 mph - N/A   Clear
11:35 AM 60.8 °F - 26.6 °F 27% 30.36 in 10.0 mi South 3.5 mph - N/A   Clear
11:55 AM 62.6 °F - 26.6 °F 26% 30.36 in 10.0 mi South 6.9 mph - N/A   Clear
12:15 PM 64.4 °F - 24.8 °F 22% 30.36 in 10.0 mi South 8.1 mph - N/A   Clear
12:35 PM 66.2 °F - 24.8 °F 21% 30.35 in 10.0 mi SSW 10.4 mph - N/A   Clear
12:55 PM 66.2 °F - 24.8 °F 21% 30.34 in 10.0 mi SSW 10.4 mph - N/A   Clear
1:15 PM 68.0 °F - 24.8 °F 20% 30.33 in 10.0 mi South 5.8 mph - N/A   Clear
1:35 PM 68.0 °F - 24.8 °F 20% 30.32 in 10.0 mi South 9.2 mph - N/A   Clear
1:55 PM 69.8 °F - 23.0 °F 17% 30.31 in 10.0 mi SE 6.9 mph - N/A   Clear
2:15 PM 69.8 °F - 23.0 °F 17% 30.30 in 10.0 mi South 6.9 mph 16.1 mph N/A   Clear
2:35 PM 69.8 °F - 21.2 °F 16% 30.29 in 10.0 mi SE 10.4 mph - N/A   Clear
3:15 PM 71.6 °F - 21.2 °F 15% 30.29 in 10.0 mi South 11.5 mph - N/A   Clear
3:35 PM 71.6 °F - 19.4 °F 14% 30.28 in 10.0 mi SE 8.1 mph - N/A   Clear
3:55 PM 71.6 °F - 19.4 °F 14% 30.28 in 10.0 mi South 12.7 mph - N/A   Clear
4:15 PM 71.6 °F - 19.4 °F 14% 30.28 in 10.0 mi South 10.4 mph 18.4 mph N/A   Clear
4:35 PM 71.6 °F - 19.4 °F 14% 30.28 in 10.0 mi South 11.5 mph - N/A   Clear
4:55 PM 71.6 °F - 17.6 °F 13% 30.28 in 10.0 mi SSE 13.8 mph 17.3 mph N/A   Clear
5:15 PM 71.6 °F - 17.6 °F 13% 30.28 in 10.0 mi South 10.4 mph - N/A   Clear
5:35 PM 69.8 °F - 15.8 °F 13% 30.28 in 10.0 mi South 10.4 mph - N/A   Clear
5:55 PM 69.8 °F - 15.8 °F 13% 30.28 in 10.0 mi South 6.9 mph - N/A   Clear
6:15 PM 69.8 °F - 17.6 °F 14% 30.28 in 10.0 mi South 8.1 mph - N/A   Clear
6:35 PM 68.0 °F - 17.6 °F 15% 30.29 in 10.0 mi South 8.1 mph - N/A   Clear
6:55 PM 64.4 °F - 17.6 °F 16% 30.29 in 10.0 mi South 5.8 mph - N/A   Clear
7:15 PM 62.6 °F - 17.6 °F 18% 30.29 in 10.0 mi SSE 6.9 mph - N/A   Clear
7:35 PM 59.0 °F - 19.4 °F 22% 30.30 in 10.0 mi SE 5.8 mph - N/A   Clear
7:55 PM 55.4 °F - 17.6 °F 23% 30.31 in 10.0 mi ESE 9.2 mph - N/A   Clear
8:15 PM 53.6 °F - 17.6 °F 24% 30.31 in 10.0 mi ESE 8.1 mph - N/A   Clear
8:35 PM 51.8 °F - 17.6 °F 26% 30.31 in 10.0 mi ESE 9.2 mph - N/A   Clear
8:55 PM 50.0 °F - 17.6 °F 28% 30.31 in 10.0 mi ESE 6.9 mph - N/A   Clear
9:15 PM 48.2 °F - 17.6 °F 30% 30.32 in 10.0 mi ESE 6.9 mph - N/A   Clear
9:35 PM 48.2 °F - 19.4 °F 32% 30.32 in 10.0 mi ESE 4.6 mph - N/A   Clear
9:55 PM 48.2 °F - 19.4 °F 32% 30.32 in 10.0 mi Calm Calm - N/A   Clear
10:15 PM 48.2 °F - 21.2 °F 34% 30.32 in 10.0 mi Calm Calm - N/A   Clear
10:35 PM 51.8 °F - 24.8 °F 35% 30.33 in 10.0 mi SSE 4.6 mph - N/A   Clear
11:35 PM 37.4 °F 32.8 °F 17.6 °F 45% 30.34 in 10.0 mi WNW 5.8 mph - N/A   Clear
11:55 PM 37.4 °F 33.8 °F 17.6 °F 45% 30.34 in 10.0 mi WNW 4.6 mph - N/A   Clear